Latest Weather Observations for Dunalley

IDT60801

Issued at 1:02 am EDT Saturday 7 March 2015 (issued every 30 minutes, with the page automatically refreshed every 10 minutes)

About weather observations | Map of weather stations | Latest weather observations for TAS | Other Formats
Station Details ID: 094254 Name: DUNALLEY (STROUD POINT) Lat: -42.90 Lon: 147.79 Height: 12.43 m
Data from the previous 72 hours. | See also: Recent months at Dunalley
Date/Time
EDT
Temp
°C
App
Temp
°C
Dew
Point
Rel
Hum
%
Delta-T
°C
Wind Press
QNH
hPa
Press
MSL
hPa
Rain
since 9 am
mm
Dir
 
Spd
km/h
Gust
km/h
Spd
kts
Gust
kts
07/01:00am 8.4 5.8 6.0 85 1.1 S 9 9 5 5 1006.8 1006.8 0.8
07/12:30am 8.6 6.3 5.9 83 1.2 S 7 9 4 5 1007.0 1007.0 0.8
07/12:00am 8.5 6.2 5.8 83 1.2 S 7 9 4 5 1007.2 1007.2 0.8
 
Date/Time
EDT
Temp
°C
App
Temp
°C
Dew
Point
Rel
Hum
%
Delta-T
°C
Wind Press
QNH
hPa
Press
MSL
hPa
Rain
since 9 am
mm
Dir
 
Spd
km/h
Gust
km/h
Spd
kts
Gust
kts
06/11:30pm 8.7 6.4 5.6 81 1.4 S 7 9 4 5 1007.3 1007.3 0.8
06/11:00pm 9.1 6.9 6.0 81 1.4 S 7 9 4 5 1007.6 1007.6 0.8
06/10:30pm 10.2 8.1 5.8 74 2.0 S 6 7 3 4 1007.9 1007.9 0.8
06/10:00pm 11.4 9.3 5.7 68 2.6 S 6 13 3 7 1007.9 1007.9 0.8
06/09:30pm 12.1 8.3 5.9 66 2.9 S 15 19 8 10 1007.7 1007.7 0.8
06/09:00pm 12.4 7.9 6.2 66 2.9 SSW 19 24 10 13 1007.4 1007.4 0.8
06/08:30pm 12.5 7.1 6.5 67 2.9 SSW 24 30 13 16 1006.9 1006.9 0.8
06/08:00pm 12.6 7.3 6.6 67 2.9 SSW 24 32 13 17 1006.5 1006.5 0.8
06/07:30pm 12.8 6.5 5.5 61 3.4 SSW 28 33 15 18 1005.9 1005.9 0.8
06/07:00pm 13.1 6.0 5.3 59 3.6 SSW 32 35 17 19 1005.6 1005.6 0.8
06/06:30pm 13.5 6.1 5.2 57 3.9 SSW 33 43 18 23 1005.2 1005.2 0.8
06/06:00pm 13.7 5.6 5.3 57 3.9 SSW 37 46 20 25 1005.1 1005.1 0.8
06/05:30pm 14.2 5.7 5.3 55 4.2 SSW 39 50 21 27 1004.9 1004.9 0.8
06/05:00pm 14.7 5.6 6.0 56 4.2 SSW 43 52 23 28 1004.8 1004.8 0.8
06/04:30pm 14.3 4.8 5.1 54 4.3 SW 44 54 24 29 1004.6 1004.6 0.8
06/04:00pm 14.8 5.9 5.3 53 4.5 SW 41 61 22 33 1004.4 1004.4 0.8
06/03:58pm 15.0 6.3 5.8 54 4.4 SW 41 61 22 33 1004.4 1004.4 0.8
06/03:30pm 15.1 5.0 5.6 53 4.5 SW 48 61 26 33 1004.3 1004.3 0.8
06/03:00pm 14.4 3.8 5.0 53 4.4 SW 50 61 27 33 1004.2 1004.2 0.8
06/02:30pm 13.7 3.1 5.3 57 3.9 SW 50 63 27 34 1004.0 1004.0 0.8
06/02:14pm 13.8 2.9 5.7 58 3.8 SW 52 70 28 38 1003.7 1003.7 0.8
06/02:00pm 13.9 2.9 5.0 55 4.2 SW 52 65 28 35 1003.6 1003.6 0.8
06/01:34pm 13.8 2.0 4.7 54 4.2 SW 56 74 30 40 1003.0 1003.0 0.8
06/01:30pm 13.8 2.8 5.2 56 4.0 SW 52 67 28 36 1003.1 1003.1 0.8
06/01:00pm 13.3 0.4 5.7 60 3.6 SW 63 78 34 42 1002.6 1002.6 0.8
06/12:41pm 13.0 0.7 5.2 59 3.6 SW 59 78 32 42 1002.0 1002.0 0.8
06/12:30pm 13.1 1.5 6.5 64 3.2 SW 57 70 31 38 1002.4 1002.4 0.8
06/12:00pm 11.9 0.6 7.0 72 2.4 WSW 56 65 30 35 1002.6 1002.6 0.8
06/11:37am 12.3 0.8 6.4 67 2.8 SW 56 76 30 41 1002.1 1002.1 0.8
06/11:30am 13.1 2.2 7.3 68 2.8 SW 54 70 29 38 1002.0 1002.0 0.8
06/11:00am 11.0 -0.5 8.6 85 1.2 WSW 59 76 32 41 1001.7 1001.7 0.8
06/10:53am 11.5 1.3 8.7 83 1.4 WSW 52 70 28 38 1001.5 1001.5 0.8
06/10:30am 10.8 0.3 8.9 88 0.9 WSW 54 69 29 37 1001.3 1001.3 0.8
06/10:00am 10.8 -0.5 8.0 83 1.4 WSW 57 74 31 40 1000.6 1000.6 0.2
06/09:31am 12.1 -0.2 6.8 70 2.5 WSW 61 80 33 43 999.5 999.5 0.0
06/09:30am 12.0 -0.8 6.5 69 2.6 WSW 63 80 34 43 999.4 999.4 0.0
06/09:28am 11.9 -0.6 6.2 68 2.7 WSW 61 80 33 43 999.3 999.3 0.0
06/09:00am 11.9 -0.3 7.4 74 2.2 WSW 61 76 33 41 998.7 998.7 1.8
06/08:34am 11.1 -0.5 8.1 82 1.5 SW 59 78 32 42 998.2 998.2 1.8
06/08:30am 11.2 -0.7 8.6 84 1.3 SW 61 78 33 42 998.1 998.1 1.8
06/08:19am 11.6 -0.8 6.7 72 2.3 WSW 61 82 33 44 997.6 997.6 1.8
06/08:00am 12.5 0.1 6.3 66 3.0 WSW 61 76 33 41 997.0 997.0 1.8
06/07:30am 12.8 -0.2 7.0 68 2.8 WSW 65 78 35 42 996.1 996.1 1.8
06/07:00am 12.7 0.5 7.2 69 2.7 WSW 61 80 33 43 995.1 995.1 1.8
06/06:30am 12.9 1.1 7.6 70 2.6 WSW 59 74 32 40 994.7 994.7 1.8
06/06:03am 13.1 2.9 8.6 74 2.2 SW 52 70 28 38 994.2 994.2 1.8
06/06:00am 12.9 3.6 9.0 77 2.0 SW 48 61 26 33 994.3 994.3 1.8
06/05:57am 12.8 3.1 8.9 77 2.0 SW 50 69 27 37 994.3 994.3 1.8
06/05:30am 12.7 2.7 9.5 81 1.6 SW 52 69 28 37 993.8 993.8 1.8
06/05:00am 13.0 2.1 9.6 80 1.8 SW 57 74 31 40 992.9 992.9 1.8
06/04:30am 12.5 2.4 10.4 87 1.1 SW 54 67 29 36 992.3 992.3 1.8
06/04:00am 13.1 3.9 12.3 95 0.4 SW 52 63 28 34 991.9 991.9 0.4
06/03:46am 14.3 3.6 11.6 84 1.4 WSW 59 69 32 37 991.1 991.1 0.0
06/03:30am 15.6 4.6 10.6 72 2.6 WSW 59 74 32 40 990.8 990.8 0.0
06/03:00am 15.6 4.2 10.4 71 2.8 WSW 61 72 33 39 990.3 990.3 0.0
06/02:30am 15.5 5.9 9.4 67 3.1 W 50 57 27 31 990.7 990.7 0.0
06/02:00am 15.2 6.2 8.7 65 3.3 W 46 61 25 33 990.5 990.5 0.0
06/01:30am 14.9 5.0 8.4 65 3.3 W 50 70 27 38 991.0 991.0 0.0
06/01:00am 14.8 5.1 7.4 61 3.7 W 48 69 26 37 991.4 991.4 0.0
06/12:30am 14.6 4.9 7.4 62 3.5 WNW 48 72 26 39 991.5 991.5 0.0
06/12:00am 14.2 6.0 6.6 60 3.7 W 39 59 21 32 992.6 992.6 0.0
 
Date/Time
EDT
Temp
°C
App
Temp
°C
Dew
Point
Rel
Hum
%
Delta-T
°C
Wind Press
QNH
hPa
Press
MSL
hPa
Rain
since 9 am
mm
Dir
 
Spd
km/h
Gust
km/h
Spd
kts
Gust
kts
05/11:30pm 13.9 6.4 6.5 61 3.6 WNW 35 56 19 30 993.1 993.1 0.0
05/11:24pm 13.8 6.7 6.4 61 3.5 WNW 33 56 18 30 993.3 993.3 0.0
05/11:00pm 13.4 6.4 5.8 60 3.6 WNW 32 43 17 23 994.4 994.4 0.0
05/10:47pm 13.2 5.9 5.6 60 3.6 WNW 33 54 18 29 994.9 994.9 0.0
05/10:30pm 13.0 4.9 5.4 60 3.5 WNW 37 48 20 26 995.3 995.3 0.0
05/10:00pm 12.8 5.4 5.0 59 3.6 WNW 33 56 18 30 996.6 996.6 0.0
05/09:42pm 12.7 6.2 4.9 59 3.6 WNW 28 50 15 27 997.1 997.1 0.0
05/09:30pm 12.5 6.4 4.7 59 3.6 WNW 26 39 14 21 997.3 997.3 0.0
05/09:02pm 12.6 6.1 4.6 58 3.7 WNW 28 46 15 25 998.1 998.1 0.0
05/09:00pm 12.5 5.6 4.5 58 3.7 WNW 30 46 16 25 998.1 998.1 0.0
05/08:30pm 12.6 4.7 4.3 57 3.8 WNW 35 50 19 27 998.6 998.6 0.0
05/08:12pm 12.5 5.1 4.0 56 3.8 WNW 32 52 17 28 998.8 998.8 0.0
05/08:00pm 12.4 5.0 3.9 56 3.8 WNW 32 48 17 26 998.9 998.9 0.0
05/07:39pm 12.6 3.9 4.1 56 3.8 WNW 39 59 21 32 999.5 999.5 0.0
05/07:30pm 12.7 2.9 3.6 54 4.1 WNW 44 59 24 32 999.3 999.3 0.0
05/07:02pm 12.7 3.1 3.6 54 4.1 WNW 43 61 23 33 999.6 999.6 0.0
05/07:00pm 12.8 3.0 3.5 53 4.2 WNW 44 61 24 33 999.6 999.6 0.0
05/06:36pm 13.1 3.4 2.9 50 4.5 W 43 61 23 33 1000.1 1000.1 0.0
05/06:30pm 13.3 2.5 4.2 54 4.1 W 50 65 27 35 999.8 999.8 0.0
05/06:05pm 13.3 2.6 2.5 48 4.7 W 48 69 26 37 1000.6 1000.6 0.0
05/06:00pm 13.4 2.3 2.6 48 4.8 W 50 69 27 37 1000.7 1000.7 0.0
05/05:30pm 13.8 3.5 2.7 47 4.9 W 46 65 25 35 1001.3 1001.3 0.0
05/05:18pm 13.9 6.0 2.5 46 5.0 W 33 57 18 31 1001.4 1001.4 0.0
05/05:00pm 14.5 6.0 5.3 54 4.4 WSW 39 50 21 27 1001.4 1001.4 0.0
05/04:30pm 14.1 5.2 5.2 55 4.2 W 41 52 22 28 1002.3 1002.3 0.0
05/04:00pm 14.6 5.9 6.2 57 4.1 WSW 41 48 22 26 1002.8 1002.8 0.0
05/03:52pm 14.2 4.7 6.8 61 3.6 WSW 46 65 25 35 1003.1 1003.1 0.0
05/03:30pm 13.8 3.5 4.7 54 4.2 WSW 48 59 26 32 1003.3 1003.3 0.0
05/03:00pm 14.2 2.8 5.0 54 4.3 WSW 54 67 29 36 1003.8 1003.8 0.0
05/02:30pm 14.5 3.9 5.0 53 4.4 WSW 50 61 27 33 1004.5 1004.5 0.0
05/02:00pm 14.3 3.3 5.1 54 4.3 W 52 65 28 35 1005.0 1005.0 0.0
05/01:30pm 14.4 4.5 6.5 59 3.8 WSW 48 59 26 32 1005.3 1005.3 0.0
05/01:00pm 12.8 3.9 5.2 60 3.5 WSW 41 50 22 27 1005.8 1005.8 0.0
05/12:30pm 13.1 1.3 4.8 57 3.8 WSW 56 67 30 36 1005.7 1005.7 0.0
05/12:00pm 14.3 4.0 4.6 52 4.5 WSW 48 63 26 34 1005.5 1005.5 0.0
05/11:30am 13.1 4.6 5.0 58 3.7 WSW 39 50 21 27 1005.7 1005.7 0.0
05/11:21am 12.1 3.1 4.3 59 3.5 WSW 41 48 22 26 1005.8 1005.8 0.0
05/11:00am 12.1 0.1 4.6 60 3.4 WSW 57 74 31 40 1005.7 1005.7 0.0
05/10:31am 11.5 0.0 4.3 61 3.2 SW 54 76 29 41 1005.2 1005.2 0.0
05/10:30am 11.7 0.1 4.0 59 3.4 WSW 54 70 29 38 1005.2 1005.2 0.0
05/10:00am 12.2 0.3 5.1 62 3.3 WSW 57 69 31 37 1004.6 1004.6 0.0
05/09:42am 11.5 -0.3 4.7 63 3.1 WSW 56 76 30 41 1004.3 1004.3 0.0
05/09:30am 11.2 -0.9 4.4 63 3.1 WSW 57 74 31 40 1004.0 1004.0 0.0
05/09:17am 11.0 -1.4 4.5 64 2.9 WSW 59 80 32 43 1003.7 1003.7 0.0
05/09:00am 11.0 -1.5 4.0 62 3.1 WSW 59 74 32 40 1003.5 1003.5 -
05/08:30am 10.5 -3.1 4.4 66 2.7 WSW 65 91 35 49 1002.7 1002.7 -
05/08:22am 10.1 -3.5 4.5 68 2.5 WSW 65 87 35 47 1002.7 1002.7 -
05/08:00am 10.6 -0.6 5.8 72 2.2 W 54 72 29 39 1002.3 1002.3 -
05/07:32am 10.3 1.3 6.6 78 1.7 W 43 61 23 33 1001.6 1001.6 -
05/07:30am 10.4 1.6 7.3 81 1.5 W 43 52 23 28 1001.6 1001.6 -
05/07:00am 9.6 -0.6 6.9 83 1.3 WSW 50 72 27 39 1000.9 1000.9 -
05/06:38am 9.6 -1.1 6.5 81 1.4 WSW 52 70 28 38 1000.3 1000.3 -
05/06:30am 10.3 -1.1 6.6 78 1.7 WSW 56 70 30 38 1000.1 1000.1 -
05/06:00am 10.2 0.0 7.1 81 1.5 WSW 50 61 27 33 999.0 999.0 -
05/05:33am 10.0 -1.6 6.7 80 1.5 WSW 57 76 31 41 998.4 998.4 -
05/05:30am 10.0 -2.4 6.7 80 1.5 WSW 61 76 33 41 998.3 998.3 -
05/05:16am 10.2 -2.1 7.1 81 1.5 WSW 61 80 33 43 998.1 998.1 -
05/05:00am 10.6 -0.8 6.7 77 1.9 WSW 56 67 30 36 997.7 997.7 -
05/04:30am 10.2 0.5 7.3 82 1.4 SW 48 59 26 32 997.7 997.7 -
05/04:01am 11.6 2.3 7.7 77 1.9 WSW 46 67 25 36 997.2 997.2 -
05/04:00am 11.8 2.5 7.7 76 2.0 WSW 46 57 25 31 997.1 997.1 -
05/03:30am 12.1 2.4 7.4 73 2.3 WSW 48 59 26 32 996.5 996.5 -
05/03:00am 12.1 3.0 6.8 70 2.6 WSW 44 52 24 28 996.3 996.3 0.0
05/02:30am 12.5 4.0 7.0 69 2.6 WSW 41 54 22 29 996.1 996.1 -
05/02:00am 12.8 3.9 7.7 71 2.5 WSW 44 54 24 29 996.8 996.8 -
05/01:30am 13.3 3.8 8.4 72 2.4 WSW 48 57 26 31 996.5 996.5 -
05/01:00am 13.6 5.6 9.1 74 2.3 WSW 41 50 22 27 996.3 996.3 -
05/12:30am 13.9 3.8 9.1 73 2.4 W 52 67 28 36 995.6 995.6 -
05/12:20am 14.4 9.5 9.8 74 2.4 W 26 57 14 31 995.9 995.9 -
05/12:19am 14.7 10.2 10.1 74 2.4 W 24 48 13 26 995.8 995.8 -
05/12:00am 14.6 11.2 7.6 63 3.5 WNW 15 22 8 12 995.6 995.6 -
 
Date/Time
EDT
Temp
°C
App
Temp
°C
Dew
Point
Rel
Hum
%
Delta-T
°C
Wind Press
QNH
hPa
Press
MSL
hPa
Rain
since 9 am
mm
Dir
 
Spd
km/h
Gust
km/h
Spd
kts
Gust
kts
04/11:30pm 14.9 9.8 7.5 61 3.7 WNW 24 33 13 18 996.1 996.1 -
04/11:00pm 15.7 8.3 6.7 55 4.4 WNW 35 57 19 31 996.1 996.1 -
04/10:58pm 15.8 8.0 6.8 55 4.4 WNW 37 57 20 31 996.0 996.0 -
04/10:30pm 15.7 9.2 6.7 55 4.4 WNW 30 39 16 21 996.4 996.4 -
04/10:00pm 15.7 9.9 6.4 54 4.6 NW 26 44 14 24 996.8 996.8 -
04/09:30pm 15.6 12.0 8.4 62 3.6 WNW 17 28 9 15 997.0 997.0 -
04/09:00pm 16.2 10.3 8.9 62 3.8 WNW 30 43 16 23 997.2 997.2 0.0
04/08:30pm 16.7 10.1 8.7 59 4.1 WNW 33 56 18 30 997.1 997.1 -
04/08:19pm 16.8 11.3 9.0 60 4.0 NW 28 52 15 28 997.3 997.3 -
04/08:00pm 17.4 13.2 8.3 55 4.7 WNW 20 32 11 17 997.4 997.4 -
04/07:30pm 17.9 15.4 8.2 53 5.0 W 11 17 6 9 997.7 997.7 -
04/07:00pm 18.6 13.5 7.7 49 5.6 WNW 24 35 13 19 997.9 997.9 -
04/06:30pm 19.0 12.1 7.4 47 5.9 WNW 33 46 18 25 998.1 998.1 -
04/06:00pm 19.6 12.8 6.7 43 6.5 WNW 32 59 17 32 998.4 998.4 -
04/05:44pm 20.7 14.2 6.6 40 7.1 WNW 30 50 16 27 998.6 998.6 -
04/05:30pm 20.5 13.1 6.8 41 6.9 WNW 35 52 19 28 998.5 998.5 -
04/05:22pm 20.3 14.2 6.6 41 6.9 WNW 28 46 15 25 998.5 998.5 -
04/05:00pm 20.6 15.7 9.8 50 5.8 W 26 35 14 19 998.6 998.6 -
04/04:30pm 21.0 15.6 8.0 43 6.8 WNW 26 37 14 20 998.9 998.9 -
04/04:00pm 19.8 14.9 10.0 53 5.3 W 26 37 14 20 999.5 999.5 -
04/03:30pm 20.1 13.6 10.2 53 5.3 W 35 43 19 23 999.6 999.6 -
04/03:00pm 20.6 14.5 9.8 50 5.8 W 32 41 17 22 999.9 999.9 -
04/02:30pm 22.1 16.3 10.9 49 6.2 W 32 43 17 23 999.9 999.9 -
04/02:00pm 21.7 15.6 9.9 47 6.4 W 32 44 17 24 1000.0 1000.0 -
04/01:30pm 21.6 15.6 10.7 50 6.0 W 33 43 18 23 1000.3 1000.3 -
04/01:00pm 21.4 13.6 9.6 47 6.4 W 41 52 22 28 1000.5 1000.5 -
04/12:33pm 22.3 15.6 9.5 44 6.9 WNW 35 54 19 29 1001.0 1001.0 -
04/12:30pm 22.1 15.2 8.9 43 7.0 WNW 35 50 19 27 1001.0 1001.0 -
04/12:00pm 22.2 16.2 8.7 42 7.2 WNW 30 44 16 24 1001.5 1001.5 -
04/11:30am 21.5 14.9 8.4 43 6.9 WNW 33 43 18 23 1001.9 1001.9 0.0
04/11:00am 20.1 13.4 8.1 46 6.2 WNW 33 50 18 27 1002.3 1002.3 0.0
04/10:30am 18.1 12.3 7.8 51 5.2 WNW 28 43 15 23 1002.4 1002.4 0.0
04/10:02am 18.7 12.9 8.1 50 5.4 NW 28 46 15 25 1002.7 1002.7 0.0
04/10:00am 18.8 12.8 8.5 51 5.4 NW 30 46 16 25 1002.6 1002.6 0.0
04/09:57am 18.3 12.6 8.3 52 5.1 NW 28 48 15 26 1002.6 1002.6 0.0
04/09:30am 16.9 12.3 8.3 57 4.4 NW 22 35 12 19 1003.3 1003.3 0.0
04/09:00am 16.9 12.7 8.3 57 4.4 NW 20 33 11 18 1003.5 1003.5 0.0
04/08:30am 16.0 11.4 8.0 59 4.0 NW 22 37 12 20 1003.6 1003.6 0.0
04/08:00am 15.6 11.2 7.6 59 4.0 NW 20 33 11 18 1003.7 1003.7 0.0
04/07:30am 15.4 10.2 7.2 58 4.0 NW 24 33 13 18 1003.7 1003.7 0.0
04/07:00am 15.2 10.3 6.7 57 4.2 NW 22 35 12 19 1004.0 1004.0 0.0
04/06:30am 15.0 10.6 6.6 57 4.1 NW 19 32 10 17 1003.9 1003.9 0.0
04/06:00am 14.7 11.0 6.3 57 4.1 WNW 15 22 8 12 1004.3 1004.3 0.0
04/05:30am 14.4 9.8 6.3 58 3.9 NW 20 32 11 17 1004.4 1004.4 0.0
04/05:00am 14.7 9.7 6.3 57 4.1 NW 22 39 12 21 1004.8 1004.8 0.0
04/04:30am 14.3 9.2 6.2 58 3.9 NW 22 37 12 20 1004.9 1004.9 0.0
04/04:00am 13.9 10.0 5.3 56 4.0 WNW 15 22 8 12 1005.3 1005.3 0.0
04/03:30am 13.5 10.8 5.4 58 3.8 NW 9 39 5 21 1005.5 1005.5 0.0
04/03:00am 13.4 10.2 5.1 57 3.9 NW 11 17 6 9 1006.0 1006.0 0.0
04/02:30am 12.5 10.2 4.7 59 3.6 NW 6 9 3 5 1006.9 1006.9 0.0
04/02:00am 12.7 9.7 4.2 56 3.9 NW 9 17 5 9 1007.3 1007.3 0.0
04/01:30am 12.4 9.4 4.1 57 3.7 NW 9 15 5 8 1008.0 1008.0 0.0

Other Formats:

Comma delimited format used in spreadsheet applications
http://www.bom.gov.au/fwo/IDT60801/IDT60801.94951.axf

JavaScript Object Notation format (JSON) in row-major order
http://www.bom.gov.au/fwo/IDT60801/IDT60801.94951.json